createdAt,value
2019-01-14T00:00:52.973Z,2.77
2019-01-14T00:03:21.773Z,2.60
2019-01-14T00:05:51.642Z,2.42
2019-01-14T00:08:20.672Z,2.60
2019-01-14T00:10:49.355Z,2.42
2019-01-14T00:13:18.248Z,2.50
2019-01-14T00:15:47.347Z,2.50
2019-01-14T00:18:18.210Z,2.20
2019-01-14T00:20:47.587Z,2.52
2019-01-14T00:23:16.478Z,2.42
2019-01-14T00:25:45.159Z,2.60
2019-01-14T00:28:14.829Z,2.50
2019-01-14T00:30:44.006Z,2.67
2019-01-14T00:33:12.766Z,2.72
2019-01-14T00:35:44.046Z,2.55
2019-01-14T00:38:12.889Z,2.35
2019-01-14T00:40:41.671Z,2.12
2019-01-14T00:43:10.146Z,2.50
2019-01-14T00:45:39.045Z,2.50
2019-01-14T00:48:07.727Z,2.85
2019-01-14T00:50:36.532Z,2.42
2019-01-14T00:53:05.400Z,2.50
2019-01-14T00:55:33.989Z,2.33
2019-01-14T00:58:02.471Z,2.02
2019-01-14T01:00:31.261Z,3.00
2019-01-14T01:03:00.251Z,2.37
2019-01-14T01:05:28.945Z,2.00
2019-01-14T01:07:57.644Z,2.27
2019-01-14T01:10:26.411Z,1.77
2019-01-14T01:12:54.899Z,1.75
2019-01-14T01:15:25.434Z,1.75
2019-01-14T01:17:54.217Z,1.70
2019-01-14T01:20:22.807Z,1.57
2019-01-14T01:22:52.198Z,1.93
2019-01-14T01:25:22.838Z,1.93
2019-01-14T01:27:51.377Z,1.70
2019-01-14T01:30:20.534Z,1.60
2019-01-14T01:32:49.607Z,1.52
2019-01-14T01:35:18.175Z,1.50
2019-01-14T01:37:47.187Z,1.40
2019-01-14T01:40:18.027Z,1.40
2019-01-14T01:42:46.677Z,1.30
2019-01-14T01:45:16.009Z,1.37
2019-01-14T01:47:44.676Z,1.40
2019-01-14T01:50:15.369Z,1.10
2019-01-14T01:52:44.212Z,1.27
2019-01-14T01:55:13.099Z,1.23
2019-01-14T01:57:41.587Z,1.42
2019-01-14T02:00:15.791Z,1.40
2019-01-14T02:02:44.376Z,1.40
2019-01-14T02:05:13.430Z,1.33
2019-01-14T02:07:42.051Z,1.40
2019-01-14T02:10:16.470Z,1.50
2019-01-14T02:12:44.963Z,1.62
2019-01-14T02:15:16.002Z,1.50
2019-01-14T02:17:44.553Z,1.60
2019-01-14T02:20:15.544Z,2.05
2019-01-14T02:22:44.418Z,1.47
2019-01-14T02:25:15.135Z,1.70
2019-01-14T02:27:43.838Z,1.30
2019-01-14T02:30:16.009Z,1.80
2019-01-14T02:32:44.798Z,1.92
2019-01-14T02:35:13.368Z,1.70
2019-01-14T02:37:42.178Z,1.40
2019-01-14T02:40:16.066Z,1.70
2019-01-14T02:42:44.857Z,1.80
2019-01-14T02:45:15.821Z,1.82
2019-01-14T02:47:44.369Z,2.00
2019-01-14T02:50:13.760Z,1.50
2019-01-14T02:52:42.593Z,1.90
2019-01-14T02:55:11.581Z,1.65
2019-01-14T02:57:40.219Z,1.90
2019-01-14T03:00:15.687Z,1.60
2019-01-14T03:02:44.379Z,1.90
2019-01-14T03:05:13.265Z,1.62
2019-01-14T03:07:42.064Z,1.85
2019-01-14T03:10:11.565Z,2.08
2019-01-14T03:12:40.358Z,1.80
2019-01-14T03:15:10.969Z,1.80
2019-01-14T03:17:39.775Z,1.98
2019-01-14T03:20:14.596Z,1.55
2019-01-14T03:22:43.395Z,1.50
2019-01-14T03:25:12.414Z,1.87
2019-01-14T03:27:42.808Z,1.75
2019-01-14T03:30:15.010Z,1.65
2019-01-14T03:32:44.679Z,1.82
2019-01-14T03:35:13.384Z,2.05
2019-01-14T03:37:44.108Z,1.85
2019-01-14T03:40:14.680Z,1.87
2019-01-14T03:42:44.944Z,2.08
2019-01-14T03:45:13.959Z,1.80
2019-01-14T03:47:42.524Z,1.85
2019-01-14T03:50:17.366Z,1.72
2019-01-14T03:52:46.270Z,1.80
2019-01-14T03:55:14.835Z,2.33
2019-01-14T03:57:44.142Z,2.58
2019-01-14T04:00:17.329Z,2.00
2019-01-14T04:02:46.119Z,2.40
2019-01-14T04:05:16.118Z,1.95
2019-01-14T04:07:44.929Z,2.70
2019-01-14T04:10:15.948Z,2.05
2019-01-14T04:12:44.538Z,1.90
2019-01-14T04:15:16.861Z,1.95
2019-01-14T04:17:45.727Z,3.27
2019-01-14T04:20:16.131Z,1.85
2019-01-14T04:22:45.944Z,1.80
2019-01-14T04:25:14.628Z,1.62
2019-01-14T04:27:43.314Z,1.60
2019-01-14T04:30:18.763Z,1.57
2019-01-14T04:32:49.272Z,3.50
2019-01-14T04:35:18.177Z,2.92
2019-01-14T04:37:46.754Z,3.30
2019-01-14T04:40:15.958Z,2.92
2019-01-14T04:42:44.850Z,2.80
2019-01-14T04:45:15.358Z,3.22
2019-01-14T04:47:44.274Z,2.90
2019-01-14T04:50:17.857Z,3.05
2019-01-14T04:52:46.770Z,3.42
2019-01-14T04:55:15.550Z,3.00
2019-01-14T04:57:44.239Z,3.22
2019-01-14T05:00:19.884Z,2.00
2019-01-14T05:02:48.661Z,1.77
2019-01-14T05:05:17.460Z,1.40
2019-01-14T05:07:47.169Z,2.77
2019-01-14T05:10:17.899Z,2.80
2019-01-14T05:12:46.678Z,2.70
2019-01-14T05:15:15.690Z,2.47
2019-01-14T05:17:44.680Z,2.70
2019-01-14T05:20:21.954Z,3.15
2019-01-14T05:22:50.866Z,2.20
2019-01-14T05:25:19.643Z,1.93
2019-01-14T05:27:48.538Z,2.08
2019-01-14T05:30:18.630Z,2.20
2019-01-14T05:32:47.445Z,2.40
2019-01-14T05:35:17.766Z,2.40
2019-01-14T05:37:46.464Z,2.00
2019-01-14T05:40:23.275Z,2.52
2019-01-14T05:42:51.936Z,1.95
2019-01-14T05:45:20.696Z,2.10
2019-01-14T05:47:49.374Z,2.10
2019-01-14T05:50:18.493Z,1.73
2019-01-14T05:52:47.264Z,1.60
2019-01-14T05:55:16.979Z,2.10
2019-01-14T05:57:45.761Z,2.00
2019-01-14T06:00:32.790Z,1.87
2019-01-14T06:03:13.629Z,1.90
2019-01-14T06:05:42.328Z,1.70
2019-01-14T06:08:11.029Z,1.62
2019-01-14T06:10:39.819Z,1.50
2019-01-14T06:13:08.605Z,2.00
2019-01-14T06:15:37.578Z,1.80
2019-01-14T06:18:06.168Z,1.55
2019-01-14T06:20:35.258Z,1.40
2019-01-14T06:23:03.739Z,1.40
2019-01-14T06:25:32.328Z,4.55
2019-01-14T06:28:01.110Z,2.30
2019-01-14T06:30:30.310Z,2.37
2019-01-14T06:32:59.114Z,1.30
2019-01-14T06:35:27.801Z,1.60
2019-01-14T06:38:00.366Z,1.52
2019-01-14T06:40:28.034Z,1.62
2019-01-14T06:42:56.924Z,1.62
2019-01-14T06:45:26.124Z,1.85
2019-01-14T06:47:54.805Z,1.50
2019-01-14T06:50:23.785Z,1.62
2019-01-14T06:52:52.894Z,1.70
2019-01-14T06:55:21.464Z,2.10
2019-01-14T06:57:50.269Z,2.27
2019-01-14T07:00:23.854Z,2.27
2019-01-14T07:02:52.971Z,1.90
2019-01-14T07:05:21.538Z,3.02
2019-01-14T07:07:50.356Z,2.97
2019-01-14T07:10:22.093Z,2.35
2019-01-14T07:12:50.882Z,2.20
2019-01-14T07:15:19.669Z,2.20
2019-01-14T07:17:48.659Z,2.70
2019-01-14T07:20:18.361Z,2.50
2019-01-14T07:22:49.415Z,2.45
2019-01-14T07:25:17.871Z,2.13
2019-01-14T07:27:46.679Z,2.20
2019-01-14T07:30:17.310Z,2.85
2019-01-14T07:32:47.124Z,2.40
2019-01-14T07:35:16.114Z,2.10
2019-01-14T07:37:45.014Z,2.10
2019-01-14T07:40:15.644Z,2.40
2019-01-14T07:42:46.274Z,2.25
2019-01-14T07:45:16.682Z,2.02
2019-01-14T07:47:45.273Z,2.23
2019-01-14T07:50:15.875Z,2.55
2019-01-14T07:52:46.337Z,1.82
2019-01-14T07:55:14.815Z,2.05
2019-01-14T07:57:44.105Z,2.15
2019-01-14T08:00:15.754Z,2.10
2019-01-14T08:02:44.454Z,2.08
2019-01-14T08:05:13.444Z,2.00
2019-01-14T08:07:42.139Z,2.12
2019-01-14T08:10:10.929Z,2.20
2019-01-14T08:12:41.631Z,1.57
2019-01-14T08:15:15.979Z,1.75
2019-01-14T08:17:44.669Z,2.00
2019-01-14T08:20:15.299Z,1.70
2019-01-14T08:22:43.879Z,2.20
2019-01-14T08:25:13.992Z,1.65
2019-01-14T08:27:42.889Z,1.72
2019-01-14T08:30:17.302Z,1.80
2019-01-14T08:32:46.304Z,2.10
2019-01-14T08:35:14.983Z,1.60
2019-01-14T08:37:44.085Z,1.92
2019-01-14T08:40:14.962Z,2.35
2019-01-14T08:42:43.705Z,1.70
2019-01-14T08:45:13.344Z,1.50
2019-01-14T08:47:42.294Z,1.70
2019-01-14T08:50:14.368Z,1.75
2019-01-14T08:52:45.402Z,1.70
2019-01-14T08:55:14.198Z,1.60
2019-01-14T08:57:43.076Z,1.37
2019-01-14T09:00:17.722Z,1.80
2019-01-14T09:02:48.150Z,1.90
2019-01-14T09:05:17.959Z,1.42
2019-01-14T09:07:46.749Z,1.57
2019-01-14T09:10:18.504Z,1.70
2019-01-14T09:12:47.189Z,1.50
2019-01-14T09:15:19.546Z,1.80
2019-01-14T09:17:52.138Z,1.60
2019-01-14T09:20:22.228Z,1.50
2019-01-14T09:22:51.027Z,1.73
2019-01-14T09:25:19.840Z,1.92
2019-01-14T09:27:48.732Z,1.80
2019-01-14T09:30:20.271Z,1.50
2019-01-14T09:32:49.580Z,1.30
2019-01-14T09:35:18.351Z,1.00
2019-01-14T09:37:47.047Z,1.30
2019-01-14T09:40:19.005Z,1.42
2019-01-14T09:42:48.012Z,1.40
2019-01-14T09:45:16.703Z,1.12
2019-01-14T09:47:45.473Z,1.30
2019-01-14T09:50:15.361Z,1.20
2019-01-14T09:52:44.192Z,1.52
2019-01-14T09:55:15.241Z,1.32
2019-01-14T09:57:44.206Z,1.20
2019-01-14T10:00:13.331Z,1.27
2019-01-14T10:02:42.211Z,1.50
2019-01-14T10:05:12.888Z,1.10
2019-01-14T10:07:41.832Z,1.40
2019-01-14T10:10:12.696Z,1.12
2019-01-14T10:12:41.882Z,1.30
2019-01-14T10:15:13.295Z,1.00
2019-01-14T10:17:42.412Z,1.17
2019-01-14T10:20:12.113Z,1.43
2019-01-14T10:22:40.912Z,1.35
2019-01-14T10:25:09.779Z,1.50
2019-01-14T10:27:38.892Z,1.60
2019-01-14T10:30:10.858Z,1.05
2019-01-14T10:32:39.532Z,1.50
2019-01-14T10:35:09.052Z,1.30
2019-01-14T10:37:37.732Z,1.30
2019-01-14T10:40:10.212Z,1.40
2019-01-14T10:42:39.092Z,0.90
2019-01-14T10:45:11.046Z,1.20
2019-01-14T10:47:39.742Z,1.07
2019-01-14T10:50:11.312Z,1.50
2019-01-14T10:52:40.272Z,1.17
2019-01-14T10:55:12.542Z,1.30
2019-01-14T10:57:41.156Z,1.37
2019-01-14T11:00:15.346Z,1.10
2019-01-14T11:02:48.029Z,1.20
2019-01-14T11:05:19.192Z,1.37
2019-01-14T11:07:48.992Z,1.37
2019-01-14T11:10:17.795Z,1.55
2019-01-14T11:12:46.673Z,1.55
2019-01-14T11:15:17.467Z,1.30
2019-01-14T11:17:46.590Z,1.00
2019-01-14T11:20:18.154Z,1.20
2019-01-14T11:22:47.054Z,1.12
2019-01-14T11:25:16.018Z,1.47
2019-01-14T11:27:44.935Z,1.20
2019-01-14T11:30:22.212Z,1.77
2019-01-14T11:32:51.012Z,1.50
2019-01-14T11:35:19.683Z,1.05
2019-01-14T11:37:48.692Z,1.30
2019-01-14T11:40:22.983Z,1.10
2019-01-14T11:42:51.793Z,1.15
2019-01-14T11:45:20.374Z,1.40
2019-01-14T11:47:49.244Z,1.40
2019-01-14T11:50:18.352Z,1.37
2019-01-14T11:52:47.134Z,1.27
2019-01-14T11:55:16.053Z,1.10
2019-01-14T11:57:44.932Z,1.25
2019-01-14T12:00:22.413Z,1.20
2019-01-14T12:02:51.212Z,1.37
2019-01-14T12:05:20.092Z,1.40
2019-01-14T12:07:48.992Z,1.12
2019-01-14T12:10:17.773Z,1.02
2019-01-14T12:12:46.689Z,0.98
2019-01-14T12:15:23.691Z,1.00
2019-01-14T12:17:52.532Z,1.02
2019-01-14T12:20:21.232Z,1.02
2019-01-14T12:22:50.313Z,1.50
2019-01-14T12:25:19.904Z,1.20
2019-01-14T12:27:49.012Z,1.35
2019-01-14T12:30:27.291Z,1.20
2019-01-14T12:32:55.808Z,1.60
2019-01-14T12:35:24.593Z,1.37
2019-01-14T12:37:53.592Z,0.85
2019-01-14T12:40:24.976Z,1.17
2019-01-14T12:42:52.610Z,1.00
2019-01-14T12:47:49.887Z,1.33
2019-01-14T12:50:21.119Z,1.20
2019-01-14T12:52:50.215Z,1.15
2019-01-14T12:55:19.431Z,1.50
2019-01-14T12:57:48.312Z,1.37
2019-01-14T13:00:19.870Z,1.17
2019-01-14T13:02:48.763Z,1.30
2019-01-14T13:05:18.602Z,1.12
2019-01-14T13:07:48.273Z,1.20
2019-01-14T13:10:16.961Z,1.25
2019-01-14T13:12:45.753Z,1.62
2019-01-14T13:15:16.830Z,1.25
2019-01-14T13:17:45.673Z,1.00
2019-01-14T16:35:30.232Z,1.17
2019-01-14T16:37:59.112Z,1.62
2019-01-14T16:40:27.833Z,1.20
2019-01-14T16:42:56.792Z,1.47
2019-01-14T16:45:25.660Z,0.93
2019-01-14T16:47:54.573Z,1.92
2019-01-14T16:50:23.573Z,1.65
2019-01-14T16:52:52.227Z,1.50
2019-01-14T16:55:22.347Z,1.35
2019-01-14T16:57:51.489Z,1.30
2019-01-14T17:00:19.928Z,1.20
2019-01-14T17:02:48.507Z,1.70
2019-01-14T17:05:17.513Z,1.67
2019-01-14T17:07:46.391Z,1.20
2019-01-14T17:10:16.098Z,1.80
2019-01-14T17:12:45.130Z,1.30
2019-01-14T17:15:14.119Z,1.40
2019-01-14T17:17:42.765Z,1.57
2019-01-14T17:20:19.253Z,1.37
2019-01-14T17:22:48.170Z,1.42
2019-01-14T17:25:24.921Z,1.27
2019-01-14T17:27:56.955Z,1.40
2019-01-14T17:30:28.972Z,1.20
2019-01-14T17:33:01.814Z,1.32
2019-01-14T17:35:32.354Z,1.30
2019-01-14T17:38:01.575Z,1.50
2019-01-14T17:40:32.768Z,1.25
2019-01-14T17:43:01.068Z,1.30
2019-01-14T17:45:29.967Z,1.25
2019-01-14T17:47:58.778Z,1.40
2019-01-14T17:50:30.940Z,1.50
2019-01-14T17:52:59.850Z,1.30
2019-01-14T17:55:28.814Z,1.20
2019-01-14T17:57:57.730Z,1.65
2019-01-14T18:00:26.692Z,1.50
2019-01-14T18:02:55.893Z,1.30
2019-01-14T18:05:24.672Z,1.57
2019-01-14T18:07:53.343Z,1.65
2019-01-14T18:10:22.460Z,1.60
2019-01-14T18:12:51.269Z,1.60
2019-01-14T18:15:20.023Z,1.32
2019-01-14T18:17:49.133Z,1.80
2019-01-14T18:20:18.799Z,1.60
2019-01-14T18:22:47.726Z,1.57
2019-01-14T18:25:16.832Z,1.50
2019-01-14T18:27:45.956Z,1.87
2019-01-14T18:30:17.161Z,1.87
2019-01-14T18:32:46.273Z,1.72
2019-01-14T18:35:16.970Z,1.55
2019-01-14T18:37:45.693Z,2.40
2019-01-14T18:40:16.559Z,1.60
2019-01-14T18:42:45.512Z,1.60
2019-01-14T18:45:15.934Z,1.60
2019-01-14T18:47:44.942Z,1.90
2019-01-14T18:50:15.797Z,1.80
2019-01-14T18:52:44.552Z,1.40
2019-01-14T18:55:13.426Z,1.50
2019-01-14T18:57:42.221Z,1.40
2019-01-14T19:00:19.012Z,1.00
2019-01-14T19:02:47.792Z,1.42
2019-01-14T19:05:16.693Z,1.25
2019-01-14T19:07:45.460Z,1.80
2019-01-14T19:10:14.779Z,1.62
2019-01-14T19:12:44.272Z,1.72
2019-01-14T19:15:18.176Z,1.90
2019-01-14T19:17:46.639Z,1.98
2019-01-14T19:20:21.541Z,1.60
2019-01-14T19:22:50.464Z,1.40
2019-01-14T19:25:19.153Z,1.57
2019-01-14T19:27:48.044Z,1.85
2019-01-14T19:30:21.334Z,1.85
2019-01-14T19:32:50.217Z,1.52
2019-01-14T19:35:19.149Z,1.70
2019-01-14T19:37:49.148Z,1.60
2019-01-14T19:40:19.354Z,1.67
2019-01-14T19:42:48.266Z,1.80
2019-01-14T19:45:18.978Z,1.60
2019-01-14T19:47:47.909Z,1.82
2019-01-14T19:50:18.815Z,1.80
2019-01-14T19:52:47.802Z,1.80
2019-01-14T19:55:16.713Z,1.32
2019-01-14T19:57:45.593Z,1.60
2019-01-14T20:00:20.533Z,1.62
2019-01-14T20:02:49.411Z,1.85
2019-01-14T20:05:18.811Z,2.72
2019-01-14T20:07:49.061Z,2.60
2019-01-14T20:10:17.814Z,1.30
2019-01-14T20:12:50.282Z,1.42
2019-01-14T20:15:20.721Z,1.20
2019-01-14T20:17:49.300Z,1.37
2019-01-14T20:20:18.091Z,1.12
2019-01-14T20:22:46.984Z,1.60
2019-01-14T20:25:15.689Z,1.52
2019-01-14T20:27:44.553Z,1.35
2019-01-14T20:30:16.334Z,1.70
2019-01-14T20:32:45.013Z,1.37
2019-01-14T20:35:13.911Z,1.35
2019-01-14T20:37:42.902Z,1.15
2019-01-14T20:40:13.816Z,1.45
2019-01-14T20:42:42.507Z,1.70
2019-01-14T20:45:13.484Z,1.45
2019-01-14T20:47:42.667Z,1.57
2019-01-14T20:50:13.912Z,1.42
2019-01-14T20:52:42.792Z,1.25
2019-01-14T20:55:11.656Z,1.40
2019-01-14T20:57:40.576Z,1.50
2019-01-14T21:00:12.825Z,1.42
2019-01-14T21:02:41.728Z,1.57
2019-01-14T21:05:10.809Z,1.20
2019-01-14T21:07:39.812Z,1.40
2019-01-14T21:10:11.037Z,1.60
2019-01-14T21:12:39.844Z,1.20
2019-01-14T21:15:10.908Z,1.42
2019-01-14T21:17:39.775Z,1.22
2019-01-14T21:20:11.840Z,1.20
2019-01-14T21:22:40.852Z,1.05
2019-01-14T21:25:09.611Z,1.00
2019-01-14T21:27:38.497Z,1.10
2019-01-14T21:30:15.591Z,1.12
2019-01-14T21:32:44.484Z,1.00
2019-01-14T21:35:13.291Z,1.37
2019-01-14T21:37:43.689Z,1.57
2019-01-14T21:40:13.670Z,1.00
2019-01-14T21:42:42.520Z,1.10
2019-01-14T21:45:13.083Z,1.12
2019-01-14T21:47:42.622Z,1.40
2019-01-14T21:50:20.527Z,1.22
2019-01-14T21:52:52.621Z,1.52
2019-01-14T21:55:25.463Z,1.60
2019-01-14T21:57:54.387Z,1.15
2019-01-14T22:00:23.742Z,1.17
2019-01-14T22:02:52.337Z,1.72
2019-01-14T22:05:20.946Z,1.22
2019-01-14T22:07:49.747Z,1.05
2019-01-14T22:10:23.956Z,1.30
2019-01-14T22:12:52.590Z,1.20
2019-01-14T22:15:21.320Z,1.17
2019-01-14T22:17:50.428Z,1.15
2019-01-14T22:20:21.878Z,1.35
2019-01-14T22:22:50.448Z,1.40
2019-01-14T22:25:19.440Z,1.20
2019-01-14T22:27:48.128Z,1.22
2019-01-14T22:30:19.691Z,1.10
2019-01-14T22:32:48.474Z,1.40
2019-01-14T22:35:17.052Z,1.02
2019-01-14T22:37:45.952Z,1.20
2019-01-14T22:40:15.451Z,1.20
2019-01-14T22:42:44.208Z,1.37
2019-01-14T22:45:13.332Z,1.30
2019-01-14T22:47:42.118Z,1.15
2019-01-14T22:50:16.851Z,1.47
2019-01-14T22:52:45.762Z,1.20
2019-01-14T22:55:14.524Z,1.20
2019-01-14T22:57:43.101Z,1.20
2019-01-14T23:00:59.305Z,1.47
2019-01-14T23:03:28.001Z,1.20
2019-01-14T23:05:56.554Z,1.10
2019-01-14T23:08:25.571Z,1.47
2019-01-14T23:10:54.272Z,1.10
2019-01-14T23:13:23.042Z,1.40
2019-01-14T23:15:52.047Z,1.50
2019-01-14T23:18:20.731Z,1.50
2019-01-14T23:20:49.425Z,1.40
2019-01-14T23:23:18.406Z,1.32
2019-01-14T23:25:47.284Z,1.45
2019-01-14T23:28:16.305Z,1.32
2019-01-14T23:30:45.086Z,1.40
2019-01-14T23:33:13.959Z,1.25
2019-01-14T23:35:42.927Z,1.60
2019-01-14T23:38:11.956Z,1.30
2019-01-14T23:40:40.634Z,1.25
2019-01-14T23:43:09.217Z,1.52
2019-01-14T23:45:37.917Z,1.32
2019-01-14T23:48:06.586Z,1.20
2019-01-14T23:50:35.166Z,1.45
2019-01-14T23:53:05.921Z,1.22
2019-01-14T23:55:34.711Z,1.70
2019-01-14T23:58:03.477Z,1.50
